sensor_id;sensor_type;location;lat;lon;timestamp;temperature;humidity
41547;DHT22;27271;45.412;10.852;2022-10-18T00:01:15;12.90;99.90
41547;DHT22;27271;45.412;10.852;2022-10-18T00:04:38;12.90;99.90
41547;DHT22;27271;45.412;10.852;2022-10-18T00:07:59;12.80;99.90
41547;DHT22;27271;45.412;10.852;2022-10-18T00:11:22;12.80;99.90
41547;DHT22;27271;45.412;10.852;2022-10-18T00:14:44;12.80;99.90
41547;DHT22;27271;45.412;10.852;2022-10-18T00:18:08;12.70;99.90
41547;DHT22;27271;45.412;10.852;2022-10-18T00:21:30;12.60;99.90
41547;DHT22;27271;45.412;10.852;2022-10-18T00:24:52;12.50;99.90
41547;DHT22;27271;45.412;10.852;2022-10-18T00:28:14;12.40;99.90
41547;DHT22;27271;45.412;10.852;2022-10-18T00:31:37;12.40;99.90
41547;DHT22;27271;45.412;10.852;2022-10-18T00:35:03;12.40;99.90
41547;DHT22;27271;45.412;10.852;2022-10-18T00:38:26;12.40;99.90
41547;DHT22;27271;45.412;10.852;2022-10-18T00:41:49;12.40;99.90
41547;DHT22;27271;45.412;10.852;2022-10-18T00:45:21;12.40;99.90
41547;DHT22;27271;45.412;10.852;2022-10-18T00:48:44;12.30;99.90
41547;DHT22;27271;45.412;10.852;2022-10-18T00:56:03;12.30;99.90
41547;DHT22;27271;45.412;10.852;2022-10-18T00:59:25;12.30;99.90
41547;DHT22;27271;45.412;10.852;2022-10-18T01:02:49;12.40;99.90
41547;DHT22;27271;45.412;10.852;2022-10-18T01:06:11;12.40;99.90
41547;DHT22;27271;45.412;10.852;2022-10-18T01:16:56;12.50;99.90
41547;DHT22;27271;45.412;10.852;2022-10-18T01:28:03;12.60;99.90
41547;DHT22;27271;45.412;10.852;2022-10-18T01:31:39;12.60;99.90
41547;DHT22;27271;45.412;10.852;2022-10-18T01:35:09;12.60;99.90
41547;DHT22;27271;45.412;10.852;2022-10-18T01:38:33;12.70;99.90
41547;DHT22;27271;45.412;10.852;2022-10-18T01:41:58;12.70;99.90
41547;DHT22;27271;45.412;10.852;2022-10-18T01:45:23;12.90;99.90
41547;DHT22;27271;45.412;10.852;2022-10-18T01:48:46;13.00;99.90
41547;DHT22;27271;45.412;10.852;2022-10-18T01:52:12;13.20;99.90
41547;DHT22;27271;45.412;10.852;2022-10-18T01:55:42;13.10;99.90
41547;DHT22;27271;45.412;10.852;2022-10-18T01:59:21;13.10;99.90
41547;DHT22;27271;45.412;10.852;2022-10-18T02:02:51;13.00;99.90
41547;DHT22;27271;45.412;10.852;2022-10-18T02:06:22;12.90;99.90
41547;DHT22;27271;45.412;10.852;2022-10-18T02:10:03;12.90;99.90
41547;DHT22;27271;45.412;10.852;2022-10-18T02:13:44;12.90;99.90
41547;DHT22;27271;45.412;10.852;2022-10-18T02:17:09;12.90;99.90
41547;DHT22;27271;45.412;10.852;2022-10-18T02:20:33;13.00;99.90
41547;DHT22;27271;45.412;10.852;2022-10-18T02:23:58;13.00;99.90
41547;DHT22;27271;45.412;10.852;2022-10-18T02:27:21;13.00;99.90
41547;DHT22;27271;45.412;10.852;2022-10-18T02:34:42;13.10;99.90
41547;DHT22;27271;45.412;10.852;2022-10-18T02:38:06;13.10;99.90
41547;DHT22;27271;45.412;10.852;2022-10-18T02:41:30;13.00;99.90
41547;DHT22;27271;45.412;10.852;2022-10-18T02:44:53;12.90;99.90
41547;DHT22;27271;45.412;10.852;2022-10-18T02:48:15;12.80;99.90
41547;DHT22;27271;45.412;10.852;2022-10-18T02:51:37;12.70;99.90
41547;DHT22;27271;45.412;10.852;2022-10-18T02:54:59;12.70;99.90
41547;DHT22;27271;45.412;10.852;2022-10-18T02:58:22;12.50;99.90
41547;DHT22;27271;45.412;10.852;2022-10-18T03:01:44;12.50;99.90
41547;DHT22;27271;45.412;10.852;2022-10-18T03:05:06;12.40;99.90
41547;DHT22;27271;45.412;10.852;2022-10-18T03:08:28;12.30;99.90
41547;DHT22;27271;45.412;10.852;2022-10-18T03:11:50;12.20;99.90
41547;DHT22;27271;45.412;10.852;2022-10-18T03:15:12;12.10;99.90
41547;DHT22;27271;45.412;10.852;2022-10-18T03:18:34;12.20;99.90
41547;DHT22;27271;45.412;10.852;2022-10-18T03:21:56;12.30;99.90
41547;DHT22;27271;45.412;10.852;2022-10-18T03:25:18;12.40;99.90
41547;DHT22;27271;45.412;10.852;2022-10-18T03:28:41;12.50;99.90
41547;DHT22;27271;45.412;10.852;2022-10-18T03:32:03;12.50;99.90
41547;DHT22;27271;45.412;10.852;2022-10-18T03:35:25;12.60;99.90
41547;DHT22;27271;45.412;10.852;2022-10-18T03:38:47;12.60;99.90
41547;DHT22;27271;45.412;10.852;2022-10-18T03:42:09;12.70;99.90
41547;DHT22;27271;45.412;10.852;2022-10-18T03:45:31;12.80;99.90
41547;DHT22;27271;45.412;10.852;2022-10-18T03:48:53;12.80;99.90
41547;DHT22;27271;45.412;10.852;2022-10-18T03:52:15;12.70;99.90
41547;DHT22;27271;45.412;10.852;2022-10-18T03:55:37;12.80;99.90
41547;DHT22;27271;45.412;10.852;2022-10-18T03:58:59;12.80;99.90
41547;DHT22;27271;45.412;10.852;2022-10-18T04:02:21;12.90;99.90
41547;DHT22;27271;45.412;10.852;2022-10-18T04:05:45;12.90;99.90
41547;DHT22;27271;45.412;10.852;2022-10-18T04:09:07;12.90;99.90
41547;DHT22;27271;45.412;10.852;2022-10-18T04:12:31;12.90;99.90
41547;DHT22;27271;45.412;10.852;2022-10-18T04:15:54;12.80;99.90
41547;DHT22;27271;45.412;10.852;2022-10-18T04:19:16;12.70;99.90
41547;DHT22;27271;45.412;10.852;2022-10-18T04:22:50;12.50;99.90
41547;DHT22;27271;45.412;10.852;2022-10-18T04:26:16;12.40;99.90
41547;DHT22;27271;45.412;10.852;2022-10-18T04:29:38;12.30;99.90
41547;DHT22;27271;45.412;10.852;2022-10-18T04:33:00;12.20;99.90
41547;DHT22;27271;45.412;10.852;2022-10-18T04:36:22;12.10;99.90
41547;DHT22;27271;45.412;10.852;2022-10-18T04:39:45;12.00;99.90
41547;DHT22;27271;45.412;10.852;2022-10-18T04:43:14;12.10;99.90
41547;DHT22;27271;45.412;10.852;2022-10-18T04:46:36;12.10;99.90
41547;DHT22;27271;45.412;10.852;2022-10-18T04:49:58;12.00;99.90
41547;DHT22;27271;45.412;10.852;2022-10-18T04:53:20;12.00;99.90
41547;DHT22;27271;45.412;10.852;2022-10-18T04:56:43;12.10;99.90
41547;DHT22;27271;45.412;10.852;2022-10-18T05:00:05;12.10;99.90
41547;DHT22;27271;45.412;10.852;2022-10-18T05:07:40;12.30;99.90
41547;DHT22;27271;45.412;10.852;2022-10-18T05:11:03;12.40;99.90
41547;DHT22;27271;45.412;10.852;2022-10-18T05:14:27;12.40;99.90
41547;DHT22;27271;45.412;10.852;2022-10-18T05:17:50;12.30;99.90
41547;DHT22;27271;45.412;10.852;2022-10-18T05:21:16;12.30;99.90
41547;DHT22;27271;45.412;10.852;2022-10-18T05:24:39;12.20;99.90
41547;DHT22;27271;45.412;10.852;2022-10-18T05:28:04;12.20;99.90
41547;DHT22;27271;45.412;10.852;2022-10-18T05:31:42;12.20;99.90
41547;DHT22;27271;45.412;10.852;2022-10-18T05:35:07;12.20;99.90
41547;DHT22;27271;45.412;10.852;2022-10-18T05:38:29;12.10;99.90
41547;DHT22;27271;45.412;10.852;2022-10-18T05:41:57;12.10;99.90
41547;DHT22;27271;45.412;10.852;2022-10-18T05:45:20;12.10;99.90
41547;DHT22;27271;45.412;10.852;2022-10-18T05:48:47;12.10;99.90
41547;DHT22;27271;45.412;10.852;2022-10-18T05:52:14;12.10;99.90
41547;DHT22;27271;45.412;10.852;2022-10-18T05:55:40;12.20;99.90
41547;DHT22;27271;45.412;10.852;2022-10-18T05:59:03;12.30;99.90
41547;DHT22;27271;45.412;10.852;2022-10-18T06:02:37;12.50;99.90
41547;DHT22;27271;45.412;10.852;2022-10-18T06:06:06;12.70;99.90
41547;DHT22;27271;45.412;10.852;2022-10-18T06:09:31;12.80;99.90
41547;DHT22;27271;45.412;10.852;2022-10-18T06:12:54;12.90;99.90
41547;DHT22;27271;45.412;10.852;2022-10-18T06:16:18;13.10;99.90
41547;DHT22;27271;45.412;10.852;2022-10-18T06:19:40;13.30;99.90
41547;DHT22;27271;45.412;10.852;2022-10-18T06:23:05;13.40;99.90
41547;DHT22;27271;45.412;10.852;2022-10-18T06:26:28;13.50;99.90
41547;DHT22;27271;45.412;10.852;2022-10-18T06:29:50;13.80;99.90
41547;DHT22;27271;45.412;10.852;2022-10-18T06:33:13;14.10;99.90
41547;DHT22;27271;45.412;10.852;2022-10-18T06:36:36;14.40;99.90
41547;DHT22;27271;45.412;10.852;2022-10-18T06:40:00;14.70;99.90
41547;DHT22;27271;45.412;10.852;2022-10-18T06:43:23;15.00;99.90
41547;DHT22;27271;45.412;10.852;2022-10-18T06:46:49;15.30;99.90
41547;DHT22;27271;45.412;10.852;2022-10-18T06:50:15;15.70;99.90
41547;DHT22;27271;45.412;10.852;2022-10-18T06:53:45;16.00;99.90
41547;DHT22;27271;45.412;10.852;2022-10-18T06:57:41;16.30;99.90
41547;DHT22;27271;45.412;10.852;2022-10-18T07:01:16;17.00;99.90
41547;DHT22;27271;45.412;10.852;2022-10-18T07:04:52;18.20;99.90
41547;DHT22;27271;45.412;10.852;2022-10-18T07:08:20;19.70;99.90
41547;DHT22;27271;45.412;10.852;2022-10-18T07:11:58;21.10;98.90
41547;DHT22;27271;45.412;10.852;2022-10-18T07:15:58;21.90;97.40
41547;DHT22;27271;45.412;10.852;2022-10-18T07:19:22;22.40;95.40
41547;DHT22;27271;45.412;10.852;2022-10-18T07:22:58;23.20;93.20
41547;DHT22;27271;45.412;10.852;2022-10-18T07:26:39;23.30;91.90
41547;DHT22;27271;45.412;10.852;2022-10-18T07:30:10;23.30;91.90
41547;DHT22;27271;45.412;10.852;2022-10-18T07:33:34;23.80;91.60
41547;DHT22;27271;45.412;10.852;2022-10-18T07:37:01;24.20;87.80
41547;DHT22;27271;45.412;10.852;2022-10-18T07:40:38;24.70;84.50
41547;DHT22;27271;45.412;10.852;2022-10-18T07:48:01;26.20;81.10
41547;DHT22;27271;45.412;10.852;2022-10-18T07:51:39;26.70;77.20
41547;DHT22;27271;45.412;10.852;2022-10-18T07:55:10;26.50;77.70
41547;DHT22;27271;45.412;10.852;2022-10-18T07:58:51;26.30;77.20
41547;DHT22;27271;45.412;10.852;2022-10-18T08:02:30;26.90;75.00
41547;DHT22;27271;45.412;10.852;2022-10-18T08:05:58;26.80;74.20
41547;DHT22;27271;45.412;10.852;2022-10-18T08:09:25;27.20;74.70
41547;DHT22;27271;45.412;10.852;2022-10-18T08:12:54;27.60;74.50
41547;DHT22;27271;45.412;10.852;2022-10-18T08:16:24;28.00;70.80
41547;DHT22;27271;45.412;10.852;2022-10-18T08:20:54;28.40;69.90
41547;DHT22;27271;45.412;10.852;2022-10-18T08:24:19;29.10;68.90
41547;DHT22;27271;45.412;10.852;2022-10-18T08:27:49;29.60;66.60
41547;DHT22;27271;45.412;10.852;2022-10-18T08:31:32;29.60;64.50
41547;DHT22;27271;45.412;10.852;2022-10-18T08:34:57;29.90;64.70
41547;DHT22;27271;45.412;10.852;2022-10-18T08:38:47;30.10;66.60
41547;DHT22;27271;45.412;10.852;2022-10-18T08:42:17;29.30;66.30
41547;DHT22;27271;45.412;10.852;2022-10-18T08:45:41;29.10;64.90
41547;DHT22;27271;45.412;10.852;2022-10-18T08:49:42;29.40;66.20
41547;DHT22;27271;45.412;10.852;2022-10-18T08:53:23;30.00;62.70
41547;DHT22;27271;45.412;10.852;2022-10-18T08:56:58;30.60;62.10
41547;DHT22;27271;45.412;10.852;2022-10-18T09:00:26;30.30;59.60
41547;DHT22;27271;45.412;10.852;2022-10-18T09:18:06;31.00;56.50
41547;DHT22;27271;45.412;10.852;2022-10-18T09:21:49;30.50;56.60
41547;DHT22;27271;45.412;10.852;2022-10-18T09:36:04;30.70;55.40
41547;DHT22;27271;45.412;10.852;2022-10-18T09:39:36;30.50;55.00
41547;DHT22;27271;45.412;10.852;2022-10-18T09:43:00;30.10;55.50
41547;DHT22;27271;45.412;10.852;2022-10-18T09:46:26;29.60;56.70
41547;DHT22;27271;45.412;10.852;2022-10-18T09:49:59;30.00;55.90
41547;DHT22;27271;45.412;10.852;2022-10-18T09:57:39;30.30;55.90
41547;DHT22;27271;45.412;10.852;2022-10-18T10:01:02;30.20;55.80
41547;DHT22;27271;45.412;10.852;2022-10-18T10:04:24;30.60;58.70
41547;DHT22;27271;45.412;10.852;2022-10-18T10:07:48;30.50;55.80
41547;DHT22;27271;45.412;10.852;2022-10-18T10:15:23;29.40;56.90
41547;DHT22;27271;45.412;10.852;2022-10-18T10:18:53;29.50;58.40
41547;DHT22;27271;45.412;10.852;2022-10-18T10:22:15;29.60;57.30
41547;DHT22;27271;45.412;10.852;2022-10-18T10:25:56;29.10;57.80
41547;DHT22;27271;45.412;10.852;2022-10-18T10:33:35;29.00;57.80
41547;DHT22;27271;45.412;10.852;2022-10-18T10:36:58;28.80;57.10
41547;DHT22;27271;45.412;10.852;2022-10-18T10:40:22;28.60;58.50
41547;DHT22;27271;45.412;10.852;2022-10-18T10:43:49;28.70;58.60
41547;DHT22;27271;45.412;10.852;2022-10-18T10:47:30;28.20;58.40
41547;DHT22;27271;45.412;10.852;2022-10-18T10:51:15;27.90;60.10
41547;DHT22;27271;45.412;10.852;2022-10-18T10:54:38;28.00;58.50
41547;DHT22;27271;45.412;10.852;2022-10-18T10:58:00;28.20;59.30
41547;DHT22;27271;45.412;10.852;2022-10-18T11:01:29;28.00;57.90
41547;DHT22;27271;45.412;10.852;2022-10-18T11:04:53;28.10;59.80
41547;DHT22;27271;45.412;10.852;2022-10-18T11:08:19;28.00;57.60
41547;DHT22;27271;45.412;10.852;2022-10-18T11:11:55;27.80;59.20
41547;DHT22;27271;45.412;10.852;2022-10-18T11:15:25;27.80;59.60
41547;DHT22;27271;45.412;10.852;2022-10-18T11:18:50;27.60;60.50
41547;DHT22;27271;45.412;10.852;2022-10-18T11:22:17;27.50;60.80
41547;DHT22;27271;45.412;10.852;2022-10-18T11:26:12;27.70;62.10
41547;DHT22;27271;45.412;10.852;2022-10-18T11:49:22;27.60;62.30
41547;DHT22;27271;45.412;10.852;2022-10-18T11:56:37;28.00;62.80
41547;DHT22;27271;45.412;10.852;2022-10-18T12:03:58;27.80;62.70
41547;DHT22;27271;45.412;10.852;2022-10-18T12:07:24;27.60;64.90
41547;DHT22;27271;45.412;10.852;2022-10-18T12:10:55;27.60;63.30
41547;DHT22;27271;45.412;10.852;2022-10-18T12:14:29;27.50;65.90
41547;DHT22;27271;45.412;10.852;2022-10-18T12:17:56;27.60;64.70
41547;DHT22;27271;45.412;10.852;2022-10-18T12:21:24;27.70;64.50
41547;DHT22;27271;45.412;10.852;2022-10-18T12:24:47;27.40;65.80
41547;DHT22;27271;45.412;10.852;2022-10-18T12:32:12;27.60;64.60
41547;DHT22;27271;45.412;10.852;2022-10-18T12:40:28;27.40;65.10
41547;DHT22;27271;45.412;10.852;2022-10-18T12:43:36;27.40;64.20
41547;DHT22;27271;45.412;10.852;2022-10-18T12:47:00;27.30;64.60
41547;DHT22;27271;45.412;10.852;2022-10-18T12:50:38;27.10;63.70
41547;DHT22;27271;45.412;10.852;2022-10-18T12:57:22;26.90;64.40
41547;DHT22;27271;45.412;10.852;2022-10-18T13:08:26;26.70;66.70
41547;DHT22;27271;45.412;10.852;2022-10-18T13:11:43;26.80;67.20
41547;DHT22;27271;45.412;10.852;2022-10-18T13:33:40;26.60;65.40
41547;DHT22;27271;45.412;10.852;2022-10-18T13:37:05;26.40;66.10
41547;DHT22;27271;45.412;10.852;2022-10-18T13:40:39;26.30;67.90
41547;DHT22;27271;45.412;10.852;2022-10-18T13:44:08;26.20;67.70
41547;DHT22;27271;45.412;10.852;2022-10-18T13:47:36;26.10;67.10
41547;DHT22;27271;45.412;10.852;2022-10-18T13:51:18;26.00;68.00
41547;DHT22;27271;45.412;10.852;2022-10-18T13:55:07;26.00;67.90
41547;DHT22;27271;45.412;10.852;2022-10-18T14:06:50;26.10;68.30
41547;DHT22;27271;45.412;10.852;2022-10-18T14:10:21;25.90;67.00
41547;DHT22;27271;45.412;10.852;2022-10-18T14:21:15;25.60;69.30
41547;DHT22;27271;45.412;10.852;2022-10-18T14:24:45;25.40;69.90
41547;DHT22;27271;45.412;10.852;2022-10-18T14:28:16;25.30;69.30
41547;DHT22;27271;45.412;10.852;2022-10-18T14:31:41;25.10;69.90
41547;DHT22;27271;45.412;10.852;2022-10-18T14:35:30;24.90;72.00
41547;DHT22;27271;45.412;10.852;2022-10-18T14:39:03;24.90;72.00
41547;DHT22;27271;45.412;10.852;2022-10-18T14:42:26;24.70;70.70
41547;DHT22;27271;45.412;10.852;2022-10-18T14:45:49;24.60;72.70
41547;DHT22;27271;45.412;10.852;2022-10-18T14:49:12;24.50;70.90
41547;DHT22;27271;45.412;10.852;2022-10-18T14:52:34;24.40;71.30
41547;DHT22;27271;45.412;10.852;2022-10-18T14:56:03;24.30;72.30
41547;DHT22;27271;45.412;10.852;2022-10-18T14:59:30;24.10;71.70
41547;DHT22;27271;45.412;10.852;2022-10-18T15:02:53;23.90;73.80
41547;DHT22;27271;45.412;10.852;2022-10-18T15:06:19;23.80;72.80
41547;DHT22;27271;45.412;10.852;2022-10-18T15:09:41;23.70;73.60
41547;DHT22;27271;45.412;10.852;2022-10-18T15:13:04;23.60;72.80
41547;DHT22;27271;45.412;10.852;2022-10-18T15:16:32;23.60;73.50
41547;DHT22;27271;45.412;10.852;2022-10-18T15:20:37;23.40;76.00
41547;DHT22;27271;45.412;10.852;2022-10-18T15:23:39;23.20;76.90
41547;DHT22;27271;45.412;10.852;2022-10-18T15:27:21;22.90;77.60
41547;DHT22;27271;45.412;10.852;2022-10-18T15:30:44;22.70;79.00
41547;DHT22;27271;45.412;10.852;2022-10-18T15:37:44;22.40;81.60
41547;DHT22;27271;45.412;10.852;2022-10-18T15:41:35;22.20;81.10
41547;DHT22;27271;45.412;10.852;2022-10-18T15:45:00;22.10;82.30
41547;DHT22;27271;45.412;10.852;2022-10-18T15:48:38;21.90;83.40
41547;DHT22;27271;45.412;10.852;2022-10-18T15:59:51;21.70;85.40
41547;DHT22;27271;45.412;10.852;2022-10-18T16:03:15;21.50;85.90
41547;DHT22;27271;45.412;10.852;2022-10-18T16:06:37;21.40;87.00
41547;DHT22;27271;45.412;10.852;2022-10-18T16:09:59;21.30;87.50
41547;DHT22;27271;45.412;10.852;2022-10-18T16:13:21;21.10;88.10
41547;DHT22;27271;45.412;10.852;2022-10-18T16:16:44;21.00;88.60
41547;DHT22;27271;45.412;10.852;2022-10-18T16:20:19;20.80;89.20
41547;DHT22;27271;45.412;10.852;2022-10-18T16:23:42;20.70;89.90
41547;DHT22;27271;45.412;10.852;2022-10-18T16:27:04;20.50;90.20
41547;DHT22;27271;45.412;10.852;2022-10-18T16:30:27;20.40;90.40
41547;DHT22;27271;45.412;10.852;2022-10-18T16:33:52;20.20;90.60
41547;DHT22;27271;45.412;10.852;2022-10-18T16:37:14;20.00;91.30
41547;DHT22;27271;45.412;10.852;2022-10-18T16:40:36;19.80;91.90
41547;DHT22;27271;45.412;10.852;2022-10-18T16:44:02;19.60;92.30
41547;DHT22;27271;45.412;10.852;2022-10-18T16:47:24;19.40;92.80
41547;DHT22;27271;45.412;10.852;2022-10-18T16:50:46;19.40;93.10
41547;DHT22;27271;45.412;10.852;2022-10-18T16:54:08;19.30;93.50
41547;DHT22;27271;45.412;10.852;2022-10-18T16:57:34;19.10;94.30
41547;DHT22;27271;45.412;10.852;2022-10-18T17:01:01;19.00;94.80
41547;DHT22;27271;45.412;10.852;2022-10-18T17:04:29;18.90;95.00
41547;DHT22;27271;45.412;10.852;2022-10-18T17:07:52;18.80;95.70
41547;DHT22;27271;45.412;10.852;2022-10-18T17:11:16;18.60;96.30
41547;DHT22;27271;45.412;10.852;2022-10-18T17:14:42;18.60;96.60
41547;DHT22;27271;45.412;10.852;2022-10-18T17:18:09;18.40;97.20
41547;DHT22;27271;45.412;10.852;2022-10-18T17:21:33;18.30;97.80
41547;DHT22;27271;45.412;10.852;2022-10-18T17:24:56;18.20;98.80
41547;DHT22;27271;45.412;10.852;2022-10-18T17:28:22;18.20;99.30
41547;DHT22;27271;45.412;10.852;2022-10-18T17:31:45;18.10;99.90
41547;DHT22;27271;45.412;10.852;2022-10-18T17:35:08;18.00;99.90
41547;DHT22;27271;45.412;10.852;2022-10-18T17:38:30;17.90;99.90
41547;DHT22;27271;45.412;10.852;2022-10-18T17:41:53;17.90;99.90
41547;DHT22;27271;45.412;10.852;2022-10-18T17:45:20;17.80;99.90
41547;DHT22;27271;45.412;10.852;2022-10-18T17:48:45;17.80;99.90
41547;DHT22;27271;45.412;10.852;2022-10-18T17:52:10;17.70;99.90
41547;DHT22;27271;45.412;10.852;2022-10-18T17:55:33;17.60;99.90
41547;DHT22;27271;45.412;10.852;2022-10-18T17:58:55;17.60;99.90
41547;DHT22;27271;45.412;10.852;2022-10-18T18:02:17;17.60;99.90
41547;DHT22;27271;45.412;10.852;2022-10-18T18:05:40;17.50;99.90
41547;DHT22;27271;45.412;10.852;2022-10-18T18:09:05;17.50;99.90
41547;DHT22;27271;45.412;10.852;2022-10-18T18:12:28;17.50;99.90
41547;DHT22;27271;45.412;10.852;2022-10-18T18:15:50;17.50;99.90
41547;DHT22;27271;45.412;10.852;2022-10-18T18:19:13;17.40;99.90
41547;DHT22;27271;45.412;10.852;2022-10-18T18:22:35;17.40;99.90
41547;DHT22;27271;45.412;10.852;2022-10-18T18:26:03;17.40;99.90
41547;DHT22;27271;45.412;10.852;2022-10-18T18:29:26;17.30;99.90
41547;DHT22;27271;45.412;10.852;2022-10-18T18:32:48;17.30;99.90
41547;DHT22;27271;45.412;10.852;2022-10-18T18:36:11;17.30;99.90
41547;DHT22;27271;45.412;10.852;2022-10-18T18:39:34;17.20;99.90
41547;DHT22;27271;45.412;10.852;2022-10-18T18:42:58;17.10;99.90
41547;DHT22;27271;45.412;10.852;2022-10-18T18:46:40;17.10;99.90
41547;DHT22;27271;45.412;10.852;2022-10-18T18:50:02;17.10;99.90
41547;DHT22;27271;45.412;10.852;2022-10-18T18:53:24;17.00;99.90
41547;DHT22;27271;45.412;10.852;2022-10-18T18:56:50;17.00;99.90
41547;DHT22;27271;45.412;10.852;2022-10-18T19:00:13;17.00;99.90
41547;DHT22;27271;45.412;10.852;2022-10-18T19:03:36;17.10;99.90
41547;DHT22;27271;45.412;10.852;2022-10-18T19:07:02;17.00;99.90
41547;DHT22;27271;45.412;10.852;2022-10-18T19:10:24;17.00;99.90
41547;DHT22;27271;45.412;10.852;2022-10-18T19:13:47;17.00;99.90
41547;DHT22;27271;45.412;10.852;2022-10-18T19:17:11;16.90;99.90
41547;DHT22;27271;45.412;10.852;2022-10-18T19:20:33;16.90;99.90
41547;DHT22;27271;45.412;10.852;2022-10-18T19:23:56;16.90;99.90
41547;DHT22;27271;45.412;10.852;2022-10-18T19:27:20;16.80;99.90
41547;DHT22;27271;45.412;10.852;2022-10-18T19:30:42;16.80;99.90
41547;DHT22;27271;45.412;10.852;2022-10-18T19:34:11;16.70;99.90
41547;DHT22;27271;45.412;10.852;2022-10-18T19:37:34;16.60;99.90
41547;DHT22;27271;45.412;10.852;2022-10-18T19:40:56;16.50;99.90
41547;DHT22;27271;45.412;10.852;2022-10-18T19:44:18;16.50;99.90
41547;DHT22;27271;45.412;10.852;2022-10-18T19:47:41;16.40;99.90
41547;DHT22;27271;45.412;10.852;2022-10-18T19:51:05;16.30;99.90
41547;DHT22;27271;45.412;10.852;2022-10-18T19:54:30;16.20;99.90
41547;DHT22;27271;45.412;10.852;2022-10-18T19:57:52;16.20;99.90
41547;DHT22;27271;45.412;10.852;2022-10-18T20:01:14;16.10;99.90
41547;DHT22;27271;45.412;10.852;2022-10-18T20:04:37;16.10;99.90
41547;DHT22;27271;45.412;10.852;2022-10-18T20:07:59;16.00;99.90
41547;DHT22;27271;45.412;10.852;2022-10-18T20:11:23;16.00;99.90
41547;DHT22;27271;45.412;10.852;2022-10-18T20:14:48;15.90;99.90
41547;DHT22;27271;45.412;10.852;2022-10-18T20:18:10;15.90;99.90
41547;DHT22;27271;45.412;10.852;2022-10-18T20:21:33;15.80;99.90
41547;DHT22;27271;45.412;10.852;2022-10-18T20:24:57;15.80;99.90
41547;DHT22;27271;45.412;10.852;2022-10-18T20:28:21;15.70;99.90
41547;DHT22;27271;45.412;10.852;2022-10-18T20:31:44;15.70;99.90
41547;DHT22;27271;45.412;10.852;2022-10-18T20:35:20;15.70;99.90
41547;DHT22;27271;45.412;10.852;2022-10-18T20:38:52;15.70;99.90
41547;DHT22;27271;45.412;10.852;2022-10-18T20:42:19;15.70;99.90
41547;DHT22;27271;45.412;10.852;2022-10-18T20:45:41;15.70;99.90
41547;DHT22;27271;45.412;10.852;2022-10-18T20:49:05;15.70;99.90
41547;DHT22;27271;45.412;10.852;2022-10-18T20:52:27;15.70;99.90
41547;DHT22;27271;45.412;10.852;2022-10-18T20:55:49;15.70;99.90
41547;DHT22;27271;45.412;10.852;2022-10-18T20:59:11;15.70;99.90
41547;DHT22;27271;45.412;10.852;2022-10-18T21:02:34;15.70;99.90
41547;DHT22;27271;45.412;10.852;2022-10-18T21:05:59;15.70;99.90
41547;DHT22;27271;45.412;10.852;2022-10-18T21:09:23;15.60;99.90
41547;DHT22;27271;45.412;10.852;2022-10-18T21:12:46;15.60;99.90
41547;DHT22;27271;45.412;10.852;2022-10-18T21:16:08;15.60;99.90
41547;DHT22;27271;45.412;10.852;2022-10-18T21:19:30;15.60;99.90
41547;DHT22;27271;45.412;10.852;2022-10-18T21:22:55;15.60;99.90
41547;DHT22;27271;45.412;10.852;2022-10-18T21:26:25;15.60;99.90
41547;DHT22;27271;45.412;10.852;2022-10-18T21:29:48;15.50;99.90
41547;DHT22;27271;45.412;10.852;2022-10-18T21:33:10;15.50;99.90
41547;DHT22;27271;45.412;10.852;2022-10-18T21:36:34;15.40;99.90
41547;DHT22;27271;45.412;10.852;2022-10-18T21:39:56;15.30;99.90
41547;DHT22;27271;45.412;10.852;2022-10-18T21:43:18;15.20;99.90
41547;DHT22;27271;45.412;10.852;2022-10-18T21:46:41;15.10;99.90
41547;DHT22;27271;45.412;10.852;2022-10-18T21:50:07;15.00;99.90
41547;DHT22;27271;45.412;10.852;2022-10-18T21:53:30;14.90;99.90
41547;DHT22;27271;45.412;10.852;2022-10-18T21:56:52;14.80;99.90
41547;DHT22;27271;45.412;10.852;2022-10-18T22:00:14;14.70;99.90
41547;DHT22;27271;45.412;10.852;2022-10-18T22:03:37;14.70;99.90
41547;DHT22;27271;45.412;10.852;2022-10-18T22:06:59;14.60;99.90
41547;DHT22;27271;45.412;10.852;2022-10-18T22:10:21;14.50;99.90
41547;DHT22;27271;45.412;10.852;2022-10-18T22:13:43;14.50;99.90
41547;DHT22;27271;45.412;10.852;2022-10-18T22:17:05;14.50;99.90
41547;DHT22;27271;45.412;10.852;2022-10-18T22:20:27;14.40;99.90
41547;DHT22;27271;45.412;10.852;2022-10-18T22:23:51;14.30;99.90
41547;DHT22;27271;45.412;10.852;2022-10-18T22:27:13;14.20;99.90
41547;DHT22;27271;45.412;10.852;2022-10-18T22:30:35;14.20;99.90
41547;DHT22;27271;45.412;10.852;2022-10-18T22:34:01;14.20;99.90
41547;DHT22;27271;45.412;10.852;2022-10-18T22:37:23;14.10;99.90
41547;DHT22;27271;45.412;10.852;2022-10-18T22:40:45;14.10;99.90
41547;DHT22;27271;45.412;10.852;2022-10-18T22:44:09;14.00;99.90
41547;DHT22;27271;45.412;10.852;2022-10-18T22:47:32;13.90;99.90
41547;DHT22;27271;45.412;10.852;2022-10-18T22:50:55;13.90;99.90
41547;DHT22;27271;45.412;10.852;2022-10-18T22:54:17;13.90;99.90
41547;DHT22;27271;45.412;10.852;2022-10-18T22:57:39;14.00;99.90
41547;DHT22;27271;45.412;10.852;2022-10-18T23:01:03;14.00;99.90
41547;DHT22;27271;45.412;10.852;2022-10-18T23:04:25;14.00;99.90
41547;DHT22;27271;45.412;10.852;2022-10-18T23:07:51;13.90;99.90
41547;DHT22;27271;45.412;10.852;2022-10-18T23:11:13;14.00;99.90
41547;DHT22;27271;45.412;10.852;2022-10-18T23:14:35;13.90;99.90
41547;DHT22;27271;45.412;10.852;2022-10-18T23:18:00;13.90;99.90
41547;DHT22;27271;45.412;10.852;2022-10-18T23:21:32;13.80;99.90
41547;DHT22;27271;45.412;10.852;2022-10-18T23:24:56;13.70;99.90
41547;DHT22;27271;45.412;10.852;2022-10-18T23:28:19;13.60;99.90
41547;DHT22;27271;45.412;10.852;2022-10-18T23:31:41;13.60;99.90
41547;DHT22;27271;45.412;10.852;2022-10-18T23:35:04;13.60;99.90
41547;DHT22;27271;45.412;10.852;2022-10-18T23:38:28;13.60;99.90
41547;DHT22;27271;45.412;10.852;2022-10-18T23:41:50;13.50;99.90
41547;DHT22;27271;45.412;10.852;2022-10-18T23:45:12;13.40;99.90
41547;DHT22;27271;45.412;10.852;2022-10-18T23:48:34;13.50;99.90
41547;DHT22;27271;45.412;10.852;2022-10-18T23:51:56;13.50;99.90
41547;DHT22;27271;45.412;10.852;2022-10-18T23:55:18;13.40;99.90
41547;DHT22;27271;45.412;10.852;2022-10-18T23:58:41;13.40;99.90
